Time;durP1;ratioP1;P1;durP2;ratioP2;P2;SDS_P1;SDS_P2;PMS_P1;PMS_P2;Temp;Humidity;BMP_temperature;BMP_pressure;BME280_temperature;BME280_humidity;BME280_pressure;Samples;Min_cycle;Max_cycle;Signal;HPM_P1;HPM_P2
2023/06/29 00:00:58;;;;;;;6.60;6.20;;;;;;;15.95;94.52;95172.03;5132709;27;20228;-66
2023/06/29 00:03:25;;;;;;;6.15;5.78;;;;;;;15.96;93.97;95169.38;5133139;27;20204;-63
2023/06/29 00:05:55;;;;;;;6.65;6.25;;;;;;;15.99;94.25;95165.81;5121661;27;20737;-64
2023/06/29 00:08:22;;;;;;;6.28;5.88;;;;;;;15.99;93.83;95174.34;5129187;27;20664;-65
2023/06/29 00:10:50;;;;;;;6.95;6.45;;;;;;;15.96;94.10;95186.50;5132083;27;20288;-66
2023/06/29 00:13:17;;;;;;;6.28;5.78;;;;;;;15.92;94.15;95183.25;5130767;27;20222;-65
2023/06/29 00:15:44;;;;;;;6.75;6.35;;;;;;;15.87;94.61;95174.16;5131852;27;20232;-64
2023/06/29 00:18:13;;;;;;;6.88;6.47;;;;;;;15.80;94.34;95171.09;5131632;27;20200;-64
2023/06/29 00:20:39;;;;;;;6.68;6.18;;;;;;;15.81;94.71;95174.50;5133407;27;20196;-66
2023/06/29 00:23:06;;;;;;;6.25;5.85;;;;;;;15.67;95.14;95167.50;5133113;27;20649;-66
2023/06/29 00:25:33;;;;;;;5.57;5.28;;;;;;;15.70;95.30;95166.53;5132249;27;20205;-65
2023/06/29 00:28:01;;;;;;;6.20;5.68;;;;;;;15.68;95.30;95163.22;5132470;27;20231;-65
2023/06/29 00:30:28;;;;;;;6.68;6.28;;;;;;;15.64;95.10;95150.56;5133154;27;20276;-66
2023/06/29 00:32:55;;;;;;;6.90;6.43;;;;;;;15.73;95.42;95158.69;5127920;27;20194;-65
2023/06/29 00:35:22;;;;;;;5.68;5.38;;;;;;;15.63;96.08;95148.91;5125682;27;20259;-66
2023/06/29 00:37:48;;;;;;;6.50;6.10;;;;;;;15.61;96.54;95150.72;5127808;27;20205;-66
2023/06/29 00:40:15;;;;;;;6.75;6.10;;;;;;;15.75;96.09;95144.06;5124109;27;20264;-66
2023/06/29 00:42:42;;;;;;;8.10;7.03;;;;;;;15.73;95.65;95145.88;5117011;27;20314;-64
2023/06/29 00:45:10;;;;;;;6.32;5.93;;;;;;;15.72;95.83;95154.47;5119910;27;20569;-66
2023/06/29 00:47:37;;;;;;;7.25;6.15;;;;;;;15.57;96.57;95162.03;5120175;27;20269;-66
2023/06/29 00:50:05;;;;;;;6.63;6.20;;;;;;;15.48;97.18;95157.34;5133122;27;20236;-66
2023/06/29 00:52:32;;;;;;;6.20;5.80;;;;;;;15.53;96.92;95159.69;5132904;27;20702;-66
2023/06/29 00:54:59;;;;;;;7.15;6.70;;;;;;;15.51;97.12;95157.19;5119043;27;20646;-66
2023/06/29 00:57:30;;;;;;;6.35;6.00;;;;;;;15.72;95.03;95159.59;5133097;27;20200;-67
2023/06/29 01:00:00;;;;;;;6.47;6.00;;;;;;;15.75;94.61;95159.44;5129690;27;20200;-64
2023/06/29 01:02:30;;;;;;;6.63;6.20;;;;;;;15.72;94.51;95164.72;5122498;27;20288;-66
2023/06/29 01:04:57;;;;;;;6.78;6.38;;;;;;;15.68;94.91;95166.59;5129491;27;20263;-65
2023/06/29 01:07:29;;;;;;;7.13;6.55;;;;;;;15.95;93.39;95161.78;5132988;27;20644;-66
2023/06/29 01:09:59;;;;;;;7.25;6.80;;;;;;;15.90;93.89;95167.13;5130416;27;20261;-66
2023/06/29 01:12:27;;;;;;;9.57;6.70;;;;;;;15.74;94.37;95162.91;5132219;27;20288;-67
2023/06/29 01:14:55;;;;;;;6.50;5.88;;;;;;;15.72;94.95;95169.84;5132226;27;20665;-65
2023/06/29 01:17:25;;;;;;;6.60;6.20;;;;;;;15.77;94.13;95168.69;5132573;27;20246;-66
2023/06/29 01:19:54;;;;;;;7.03;6.45;;;;;;;15.81;93.31;95161.69;5132247;27;20196;-66
2023/06/29 01:22:25;;;;;;;7.43;6.93;;;;;;;15.80;93.14;95167.72;5131756;27;20220;-64
2023/06/29 01:24:53;;;;;;;6.97;6.40;;;;;;;15.83;93.20;95168.38;5132349;27;20196;-66
2023/06/29 01:27:21;;;;;;;7.25;6.80;;;;;;;15.65;93.08;95159.91;5131745;27;20196;-64
2023/06/29 01:29:53;;;;;;;7.22;6.78;;;;;;;15.65;93.41;95165.03;5132213;27;20648;-65
2023/06/29 01:32:20;;;;;;;6.95;6.35;;;;;;;15.56;93.88;95167.25;5131079;27;20200;-65
2023/06/29 01:34:46;;;;;;;6.95;6.55;;;;;;;15.55;94.19;95157.88;5119561;27;20261;-67
2023/06/29 01:37:15;;;;;;;6.72;6.22;;;;;;;15.52;93.79;95161.41;5131449;27;20231;-66
2023/06/29 01:39:48;;;;;;;7.93;7.43;;;;;;;15.50;93.90;95159.84;5131356;27;20245;-65
2023/06/29 01:42:18;;;;;;;6.95;6.55;;;;;;;15.54;94.11;95161.34;5130229;27;20220;-66
2023/06/29 01:44:45;;;;;;;7.03;6.43;;;;;;;15.55;93.56;95161.25;5130412;27;20292;-66
2023/06/29 01:47:13;;;;;;;7.88;6.93;;;;;;;15.58;93.06;95157.75;5127598;27;20669;-65
2023/06/29 01:49:40;;;;;;;6.82;6.30;;;;;;;15.69;92.11;95158.00;5121081;27;20689;-66
2023/06/29 01:52:08;;;;;;;7.20;6.80;;;;;;;15.45;92.71;95167.75;5122038;27;20824;-65
2023/06/29 01:54:34;;;;;;;7.10;6.68;;;;;;;15.42;92.96;95149.97;5130637;27;20228;-66
2023/06/29 01:57:01;;;;;;;7.30;6.80;;;;;;;15.48;92.62;95148.84;5131440;27;20208;-66
2023/06/29 01:59:29;;;;;;;7.15;6.75;;;;;;;15.49;92.21;95147.94;5131808;27;20240;-66
2023/06/29 02:01:56;;;;;;;7.88;7.15;;;;;;;15.49;91.61;95156.44;5130759;27;20289;-66
2023/06/29 02:04:22;;;;;;;8.55;7.85;;;;;;;15.44;92.03;95155.03;5131478;27;20256;-65
2023/06/29 02:06:49;;;;;;;7.47;6.97;;;;;;;15.39;92.20;95157.81;5129266;27;20258;-66
2023/06/29 02:09:16;;;;;;;8.00;7.40;;;;;;;15.34;92.55;95166.66;5129354;27;20662;-68
2023/06/29 02:11:43;;;;;;;8.30;7.60;;;;;;;15.28;92.04;95172.91;5129198;27;20224;-65
2023/06/29 02:14:10;;;;;;;7.20;6.75;;;;;;;15.17;92.68;95168.31;5129155;27;20670;-66
2023/06/29 02:16:39;;;;;;;9.35;7.05;;;;;;;15.21;92.07;95161.31;5128727;27;20205;-65
2023/06/29 02:19:05;;;;;;;7.20;6.75;;;;;;;15.11;92.97;95157.53;5127505;27;20249;-64
2023/06/29 02:21:32;;;;;;;8.25;7.55;;;;;;;15.08;92.98;95157.72;5130430;27;20192;-66
2023/06/29 02:23:59;;;;;;;8.05;7.38;;;;;;;15.11;92.60;95160.09;5131542;27;20232;-66
2023/06/29 02:26:26;;;;;;;7.85;7.25;;;;;;;14.88;93.33;95156.94;5131275;27;20230;-66
2023/06/29 02:28:53;;;;;;;8.63;7.78;;;;;;;14.84;93.76;95157.19;5123703;27;20228;-65
2023/06/29 02:31:19;;;;;;;8.68;7.97;;;;;;;14.74;93.93;95154.22;5124016;27;20257;-67
2023/06/29 02:33:48;;;;;;;8.43;7.85;;;;;;;14.84;93.42;95164.88;5118346;27;20193;-66
2023/06/29 02:36:15;;;;;;;8.48;7.78;;;;;;;14.84;93.51;95158.00;5130443;27;20662;-67
2023/06/29 02:38:42;;;;;;;8.32;7.82;;;;;;;14.86;93.08;95161.28;5131483;27;20210;-66
2023/06/29 02:41:09;;;;;;;7.85;7.35;;;;;;;14.98;92.25;95163.28;5126105;27;20253;-66
2023/06/29 02:43:35;;;;;;;8.13;7.53;;;;;;;15.09;92.18;95154.25;5130558;28;20228;-67
2023/06/29 02:46:02;;;;;;;7.78;7.07;;;;;;;15.15;91.61;95154.75;5130792;28;20240;-65
2023/06/29 02:48:29;;;;;;;7.70;7.20;;;;;;;14.97;91.72;95161.63;5132061;27;20268;-65
2023/06/29 02:50:57;;;;;;;9.82;7.40;;;;;;;14.87;91.99;95164.69;5132179;27;20251;-66
2023/06/29 02:53:24;;;;;;;7.88;7.28;;;;;;;14.74;92.56;95169.59;5135010;27;20248;-66
2023/06/29 02:55:50;;;;;;;8.95;7.93;;;;;;;14.71;93.22;95169.72;5135252;27;20200;-65
2023/06/29 02:58:17;;;;;;;7.93;7.30;;;;;;;14.81;92.65;95165.84;5134002;27;20238;-66
2023/06/29 03:00:44;;;;;;;7.55;6.95;;;;;;;14.84;92.81;95178.47;5135098;27;20228;-66
2023/06/29 03:03:10;;;;;;;7.90;7.40;;;;;;;14.86;91.92;95176.66;5134540;27;20196;-66
2023/06/29 03:05:37;;;;;;;8.18;7.57;;;;;;;14.92;91.24;95166.13;5134749;27;20227;-67
2023/06/29 03:08:05;;;;;;;8.10;7.40;;;;;;;14.93;91.21;95179.75;5133735;27;20200;-67
2023/06/29 03:10:32;;;;;;;8.02;7.43;;;;;;;14.96;90.86;95177.03;5135129;27;20264;-67
2023/06/29 03:12:59;;;;;;;7.70;7.00;;;;;;;14.83;91.31;95174.25;5134428;27;20247;-66
2023/06/29 03:15:25;;;;;;;7.82;6.97;;;;;;;14.86;91.85;95184.31;5134701;27;20235;-66
2023/06/29 03:17:52;;;;;;;8.23;7.60;;;;;;;14.88;91.66;95182.53;5135067;27;20203;-66
2023/06/29 03:20:19;;;;;;;7.47;6.93;;;;;;;14.91;91.58;95182.38;5134855;27;20250;-67
2023/06/29 03:22:45;;;;;;;8.10;7.50;;;;;;;14.94;91.29;95178.84;5134521;27;20606;-68
2023/06/29 03:25:13;;;;;;;7.82;7.25;;;;;;;15.12;90.52;95184.78;5122616;27;20253;-65
2023/06/29 03:27:40;;;;;;;8.38;7.60;;;;;;;15.20;90.17;95178.41;5134390;27;20734;-65
2023/06/29 03:30:09;;;;;;;8.60;8.00;;;;;;;15.28;89.85;95181.41;5131610;27;20765;-66
2023/06/29 03:32:35;;;;;;;7.82;7.13;;;;;;;15.37;89.41;95182.66;5133781;27;20324;-67
2023/06/29 03:35:03;;;;;;;9.63;8.68;;;;;;;15.69;88.48;95193.88;5134478;27;20228;-67
2023/06/29 03:37:30;;;;;;;9.15;8.43;;;;;;;16.20;86.33;95192.88;5133069;27;20570;-66
2023/06/29 03:39:57;;;;;;;9.07;8.38;;;;;;;16.72;84.03;95192.66;5123541;27;20637;-66
2023/06/29 03:42:25;;;;;;;8.95;8.35;;;;;;;17.23;81.63;95185.47;5134495;27;20197;-67
2023/06/29 03:44:52;;;;;;;9.10;8.27;;;;;;;17.51;79.94;95190.69;5134088;27;20223;-66
2023/06/29 03:47:18;;;;;;;12.90;11.68;;;;;;;17.62;79.16;95190.03;5122953;27;20317;-65
2023/06/29 03:49:45;;;;;;;12.88;11.57;;;;;;;17.64;78.01;95194.19;5133049;27;20794;-66
2023/06/29 03:52:12;;;;;;;14.43;12.40;;;;;;;17.67;78.24;95196.59;5133566;27;20277;-66
2023/06/29 03:54:39;;;;;;;18.05;15.95;;;;;;;17.56;78.99;95198.13;5133371;27;20228;-66
2023/06/29 03:57:06;;;;;;;11.20;10.38;;;;;;;17.47;78.88;95196.91;5124526;27;20236;-67
2023/06/29 03:59:34;;;;;;;11.25;10.07;;;;;;;17.33;79.75;95197.69;5134273;27;20204;-67
2023/06/29 04:02:01;;;;;;;9.43;8.75;;;;;;;17.14;80.49;95196.28;5133505;27;20212;-67
2023/06/29 04:04:27;;;;;;;9.80;9.00;;;;;;;17.05;81.02;95201.94;5125522;27;20231;-67
2023/06/29 04:06:54;;;;;;;10.35;9.55;;;;;;;17.15;80.56;95200.50;5131499;27;20712;-66
2023/06/29 04:09:20;;;;;;;9.63;8.93;;;;;;;17.17;81.17;95193.53;5132557;27;20260;-67
2023/06/29 04:11:47;;;;;;;10.30;9.45;;;;;;;17.32;79.04;95202.94;5131779;27;20235;-65
2023/06/29 04:14:14;;;;;;;9.52;8.73;;;;;;;17.25;79.65;95199.91;5132111;27;20682;-66
2023/06/29 04:16:42;;;;;;;9.88;9.18;;;;;;;17.28;79.67;95201.47;5130796;27;20197;-64
2023/06/29 04:19:08;;;;;;;10.07;9.27;;;;;;;17.33;79.17;95202.81;5118431;27;20209;-67
2023/06/29 04:21:35;;;;;;;11.32;10.30;;;;;;;17.24;80.35;95207.69;5126932;27;20269;-66
2023/06/29 04:24:02;;;;;;;18.08;15.98;;;;;;;17.32;79.12;95200.38;5126375;27;20257;-67
2023/06/29 04:26:28;;;;;;;15.85;14.25;;;;;;;17.24;80.73;95192.28;5127342;27;20232;-67
2023/06/29 04:29:05;;;;;;;19.38;17.27;;;;;;;17.39;78.82;95193.94;5125256;27;20208;-67
2023/06/29 04:31:32;;;;;;;21.02;18.50;;;;;;;17.52;78.81;95197.47;5119066;27;20196;-67
2023/06/29 04:34:02;;;;;;;12.48;11.20;;;;;;;17.58;78.27;95199.66;5127421;27;20225;-66
2023/06/29 04:36:29;;;;;;;10.15;9.35;;;;;;;17.66;77.74;95194.09;5133071;27;20211;-67
2023/06/29 04:38:56;;;;;;;12.18;9.82;;;;;;;17.67;77.57;95200.91;5133301;27;20204;-67
2023/06/29 04:41:30;;;;;;;10.07;8.95;;;;;;;17.84;77.09;95199.88;5133265;27;20228;-67
2023/06/29 04:43:57;;;;;;;16.10;12.95;;;;;;;17.92;77.83;95195.94;5133393;27;20271;-67
2023/06/29 04:46:24;;;;;;;19.73;17.30;;;;;;;17.91;77.51;95199.44;5133312;27;20994;-67
2023/06/29 04:48:51;;;;;;;12.07;11.07;;;;;;;18.11;76.48;95199.97;5126353;27;20200;-67
2023/06/29 04:51:19;;;;;;;11.07;10.18;;;;;;;18.28;75.30;95200.63;5132833;27;20270;-66
2023/06/29 04:53:45;;;;;;;9.88;9.15;;;;;;;18.26;76.45;95209.34;5132868;27;20236;-67
2023/06/29 04:56:13;;;;;;;10.65;9.77;;;;;;;18.46;74.41;95210.69;5133197;27;20300;-67
2023/06/29 04:58:39;;;;;;;10.23;9.52;;;;;;;18.25;74.50;95208.53;5132759;27;20627;-66
2023/06/29 05:01:06;;;;;;;10.50;9.70;;;;;;;18.32;74.21;95214.09;5132427;27;20208;-67
2023/06/29 05:03:35;;;;;;;9.73;9.07;;;;;;;18.64;73.37;95210.38;5132674;27;20279;-65
2023/06/29 05:06:02;;;;;;;10.00;9.25;;;;;;;18.92;72.36;95216.38;5132443;27;20311;-67
2023/06/29 05:08:30;;;;;;;9.48;8.68;;;;;;;19.12;71.42;95221.06;5132596;27;20200;-67
2023/06/29 05:10:57;;;;;;;9.70;9.00;;;;;;;19.33;70.62;95218.84;5132350;27;20227;-67
2023/06/29 05:13:23;;;;;;;10.48;9.68;;;;;;;19.64;69.96;95228.81;5130374;27;20588;-67
2023/06/29 05:15:50;;;;;;;10.73;9.82;;;;;;;19.76;68.72;95231.53;5132364;27;20196;-67
2023/06/29 05:18:17;;;;;;;9.93;9.13;;;;;;;19.61;69.24;95229.03;5131209;27;20730;-67
2023/06/29 05:20:43;;;;;;;9.68;8.85;;;;;;;19.65;69.45;95230.47;5132706;27;20236;-66
2023/06/29 05:23:11;;;;;;;12.02;9.82;;;;;;;19.90;68.76;95234.00;5132271;27;20700;-67
2023/06/29 05:25:40;;;;;;;10.00;9.30;;;;;;;20.01;67.67;95237.50;5132513;27;20303;-67
2023/06/29 05:28:07;;;;;;;10.13;9.00;;;;;;;19.90;67.95;95239.16;5117057;27;20201;-68
2023/06/29 05:30:34;;;;;;;9.02;8.27;;;;;;;19.62;67.79;95230.66;5131882;27;20200;-67
2023/06/29 05:33:01;;;;;;;9.95;9.07;;;;;;;19.48;69.03;95235.06;5117880;27;20320;-66
2023/06/29 05:35:28;;;;;;;12.30;11.10;;;;;;;19.59;68.81;95236.03;5132304;27;20201;-67
2023/06/29 05:37:55;;;;;;;12.20;11.20;;;;;;;19.81;68.47;95240.56;5132131;27;20224;-67
2023/06/29 05:40:21;;;;;;;11.10;10.30;;;;;;;20.08;67.09;95237.91;5134863;27;20730;-66
2023/06/29 05:42:49;;;;;;;10.73;9.85;;;;;;;20.43;66.28;95234.69;5132124;27;20196;-65
2023/06/29 05:45:16;;;;;;;9.45;8.60;;;;;;;20.92;62.90;95230.28;5118481;27;20254;-64
2023/06/29 05:47:43;;;;;;;9.80;8.88;;;;;;;20.98;62.48;95232.44;5129186;27;21414;-66
2023/06/29 05:50:10;;;;;;;9.35;8.60;;;;;;;20.73;62.86;95239.47;5131182;27;20277;-66
2023/06/29 05:52:37;;;;;;;9.73;9.02;;;;;;;20.31;64.79;95238.91;5129863;27;20274;-67
2023/06/29 05:55:04;;;;;;;9.73;8.77;;;;;;;20.13;65.06;95240.16;5117850;27;20232;-66
2023/06/29 05:57:31;;;;;;;10.95;9.13;;;;;;;20.14;66.07;95241.81;5124885;27;20253;-66
2023/06/29 05:59:59;;;;;;;11.63;9.15;;;;;;;20.34;64.60;95239.50;5126197;27;20677;-66
2023/06/29 06:02:26;;;;;;;8.80;8.10;;;;;;;20.38;64.50;95241.00;5132239;27;20200;-66
2023/06/29 06:04:53;;;;;;;8.57;7.88;;;;;;;20.36;64.57;95240.22;5131606;27;20197;-66
2023/06/29 06:07:28;;;;;;;9.38;8.77;;;;;;;20.65;64.44;95242.59;5130217;27;20229;-66
2023/06/29 06:09:55;;;;;;;9.10;8.30;;;;;;;21.71;61.47;95239.19;5129945;27;20196;-66
2023/06/29 06:12:21;;;;;;;8.52;7.85;;;;;;;23.41;56.53;95233.63;5120917;27;20228;-65
2023/06/29 06:14:48;;;;;;;8.13;7.43;;;;;;;25.52;50.73;95224.19;5126312;27;20251;-66
2023/06/29 06:17:16;;;;;;;9.35;7.20;;;;;;;27.20;46.26;95224.97;5120227;27;20205;-66
2023/06/29 06:19:43;;;;;;;7.93;7.43;;;;;;;29.35;41.95;95213.59;5128286;27;20226;-67
2023/06/29 06:22:09;;;;;;;7.18;6.68;;;;;;;32.38;36.16;95214.53;5130862;27;20697;-67
2023/06/29 06:24:38;;;;;;;5.80;5.45;;;;;;;34.06;32.80;95217.75;5117785;27;20231;-67
2023/06/29 06:27:05;;;;;;;6.32;5.70;;;;;;;34.72;30.68;95213.69;5127064;27;20263;-66
2023/06/29 06:29:32;;;;;;;6.07;5.55;;;;;;;33.86;30.85;95212.34;5128449;27;20200;-67
2023/06/29 06:31:58;;;;;;;6.50;5.85;;;;;;;35.40;29.14;95219.03;5126109;27;20192;-67
2023/06/29 06:34:30;;;;;;;6.50;5.93;;;;;;;37.74;25.95;95210.97;5122572;27;20720;-67
2023/06/29 06:36:57;;;;;;;5.60;5.25;;;;;;;39.99;23.51;95209.16;5125645;27;20234;-68
2023/06/29 06:39:24;;;;;;;6.25;5.75;;;;;;;41.30;21.75;95212.25;5130900;27;20269;-67
2023/06/29 06:41:51;;;;;;;5.78;5.47;;;;;;;42.51;20.36;95204.66;5131109;27;20662;-66
2023/06/29 06:44:17;;;;;;;5.88;5.50;;;;;;;43.38;19.48;95202.78;5130793;28;20288;-67
2023/06/29 06:46:44;;;;;;;8.88;5.85;;;;;;;43.52;19.09;95213.88;5131116;28;20242;-67
2023/06/29 06:49:11;;;;;;;5.88;5.18;;;;;;;43.38;18.92;95210.78;5131289;28;20236;-67
2023/06/29 06:51:39;;;;;;;5.50;5.20;;;;;;;42.56;19.02;95202.84;5123695;28;20311;-66
2023/06/29 06:54:05;;;;;;;5.30;5.00;;;;;;;41.83;20.04;95203.84;5131171;28;20216;-67
2023/06/29 06:56:32;;;;;;;4.93;4.72;;;;;;;42.14;20.19;95199.81;5118353;28;20200;-68
2023/06/29 06:58:59;;;;;;;5.07;4.68;;;;;;;42.85;19.63;95195.47;5130193;28;20249;-68
2023/06/29 07:01:26;;;;;;;5.30;5.00;;;;;;;44.22;18.28;95202.19;5130786;28;20249;-68
2023/06/29 07:03:53;;;;;;;8.25;4.20;;;;;;;44.63;18.12;95199.75;5124343;28;20630;-68
2023/06/29 07:06:20;;;;;;;4.95;4.70;;;;;;;44.82;17.29;95200.91;5112015;28;20225;-68
2023/06/29 07:08:48;;;;;;;4.72;4.43;;;;;;;44.75;17.40;95203.03;5127743;28;20200;-69
2023/06/29 07:11:14;;;;;;;6.22;4.68;;;;;;;42.51;19.00;95204.66;5127614;28;20236;-68
2023/06/29 07:13:41;;;;;;;5.22;4.93;;;;;;;41.55;20.64;95196.72;5121082;28;20223;-65
2023/06/29 07:16:08;;;;;;;5.00;4.47;;;;;;;42.23;19.59;95192.22;5127575;28;20300;-67
2023/06/29 07:18:36;;;;;;;5.57;5.18;;;;;;;42.72;18.89;95190.47;5128381;28;20231;-69
2023/06/29 07:21:02;;;;;;;6.65;4.90;;;;;;;44.02;17.64;95199.38;5129966;28;20239;-68
2023/06/29 07:23:29;;;;;;;6.47;4.20;;;;;;;44.74;16.92;95204.09;5130413;28;20239;-68
2023/06/29 07:25:57;;;;;;;9.82;8.18;;;;;;;44.77;17.17;95206.25;5130195;28;20247;-68
2023/06/29 07:28:24;;;;;;;5.55;5.05;;;;;;;45.22;16.23;95197.59;5129997;28;20204;-68
2023/06/29 07:30:51;;;;;;;8.52;5.68;;;;;;;45.77;16.83;95197.97;5117959;28;20262;-68
2023/06/29 07:33:18;;;;;;;14.80;10.60;;;;;;;45.51;16.16;95203.28;5130372;28;20697;-69
2023/06/29 07:35:44;;;;;;;4.93;4.53;;;;;;;45.46;16.59;95197.09;5133563;27;20239;-67
2023/06/29 07:38:12;;;;;;;3.75;3.50;;;;;;;45.73;16.09;95198.50;5126180;27;20273;-67
2023/06/29 07:40:39;;;;;;;4.15;3.88;;;;;;;46.17;16.33;95189.09;5133710;27;20211;-69
2023/06/29 07:43:07;;;;;;;4.88;4.43;;;;;;;46.26;16.34;95182.09;5129579;27;20220;-68
2023/06/29 07:45:34;;;;;;;4.82;4.63;;;;;;;45.93;16.84;95183.47;5126893;27;20232;-68
2023/06/29 07:48:00;;;;;;;4.43;4.13;;;;;;;46.71;16.37;95182.00;5129415;27;20634;-68
2023/06/29 07:50:27;;;;;;;12.57;4.28;;;;;;;47.58;14.77;95179.66;5130278;27;20285;-68
2023/06/29 07:52:54;;;;;;;3.85;3.65;;;;;;;44.83;16.92;95183.75;5133422;27;20247;-68
2023/06/29 07:55:20;;;;;;;3.70;3.22;;;;;;;44.27;17.30;95186.13;5132952;27;20305;-68
2023/06/29 07:57:47;;;;;;;7.90;3.80;;;;;;;44.07;17.57;95175.28;5133250;27;20235;-68
2023/06/29 08:00:17;;;;;;;61.78;55.17;;;;;;;45.37;16.78;95178.03;5133143;27;20204;-68
2023/06/29 08:02:43;;;;;;;4.22;3.92;;;;;;;46.05;16.22;95179.41;5123468;27;20231;-68
2023/06/29 08:05:10;;;;;;;3.13;2.92;;;;;;;46.30;15.23;95181.28;5138916;27;20272;-69
2023/06/29 08:07:37;;;;;;;3.92;3.70;;;;;;;47.47;14.84;95180.84;5145626;27;20719;-68
2023/06/29 08:10:04;;;;;;;3.70;3.50;;;;;;;47.52;15.17;95180.78;5143675;27;20200;-69
2023/06/29 08:12:30;;;;;;;3.42;3.22;;;;;;;46.80;15.36;95184.91;5145584;27;20195;-69
2023/06/29 08:14:57;;;;;;;3.00;2.78;;;;;;;45.06;16.21;95177.94;5143191;27;20695;-69
2023/06/29 08:17:25;;;;;;;4.05;3.65;;;;;;;43.25;17.55;95176.44;5145599;27;20226;-69
2023/06/29 08:19:51;;;;;;;3.50;3.20;;;;;;;42.71;18.30;95172.84;5144129;27;20872;-68
2023/06/29 08:22:18;;;;;;;4.38;4.07;;;;;;;41.37;19.45;95183.56;5145439;27;20248;-67
2023/06/29 08:24:45;;;;;;;3.38;3.17;;;;;;;40.32;20.87;95179.34;5144442;27;20227;-68
2023/06/29 08:27:11;;;;;;;5.78;3.65;;;;;;;41.18;19.80;95174.97;5145215;27;20255;-67
2023/06/29 08:29:39;;;;;;;3.53;3.33;;;;;;;43.06;18.27;95169.78;5144804;27;20233;-66
2023/06/29 08:32:08;;;;;;;9.80;5.10;;;;;;;43.70;17.45;95175.25;5149264;27;20242;-68
2023/06/29 08:34:36;;;;;;;5.15;4.72;;;;;;;44.83;17.25;95167.69;5144550;27;20298;-68
2023/06/29 08:37:03;;;;;;;3.50;3.17;;;;;;;45.91;15.96;95166.78;5149398;27;20613;-68
2023/06/29 08:39:30;;;;;;;4.20;3.90;;;;;;;46.41;15.67;95169.44;5145559;27;20235;-67
2023/06/29 08:41:56;;;;;;;3.58;3.25;;;;;;;45.98;16.02;95173.53;5145974;27;20252;-67
2023/06/29 08:44:23;;;;;;;3.30;2.92;;;;;;;45.75;16.20;95174.06;5143757;27;20291;-68
2023/06/29 08:46:51;;;;;;;3.45;3.28;;;;;;;46.09;15.51;95159.00;5141714;27;20227;-67
2023/06/29 08:49:21;;;;;;;2.78;2.58;;;;;;;46.38;15.65;95164.59;5144183;27;20224;-66
2023/06/29 08:51:52;;;;;;;3.00;2.70;;;;;;;47.24;15.18;95157.28;5148340;27;20250;-67
2023/06/29 08:54:19;;;;;;;3.25;2.90;;;;;;;47.95;14.29;95160.28;5144913;27;20228;-66
2023/06/29 08:56:46;;;;;;;2.65;2.50;;;;;;;47.32;15.08;95154.78;5144006;27;20283;-64
2023/06/29 08:59:13;;;;;;;4.45;2.90;;;;;;;45.15;16.45;95158.66;5141342;27;20742;-63
2023/06/29 09:01:40;;;;;;;3.45;3.05;;;;;;;43.92;17.60;95153.72;5142920;27;20231;-65
2023/06/29 09:04:07;;;;;;;4.75;3.10;;;;;;;44.31;17.22;95152.38;5146922;27;20227;-64
2023/06/29 09:06:34;;;;;;;3.38;2.53;;;;;;;45.04;16.86;95157.84;5141852;27;20260;-75
2023/06/29 09:09:02;;;;;;;7.35;3.05;;;;;;;46.04;16.05;95153.63;5143393;27;20680;-72
2023/06/29 09:11:33;;;;;;;2.55;2.45;;;;;;;45.95;15.69;95141.84;5144690;27;20273;-70
2023/06/29 09:14:02;;;;;;;3.17;2.97;;;;;;;46.17;15.87;95149.59;5143117;27;20242;-71
2023/06/29 09:16:29;;;;;;;2.85;2.63;;;;;;;46.60;14.79;95147.31;5144296;27;20199;-73
2023/06/29 09:18:56;;;;;;;3.28;2.53;;;;;;;46.64;15.07;95137.63;5145863;27;20199;-71
2023/06/29 09:21:23;;;;;;;2.63;2.40;;;;;;;46.77;14.59;95137.06;5142911;27;20204;-72
2023/06/29 09:23:50;;;;;;;4.47;3.75;;;;;;;46.06;15.69;95145.31;5144063;27;20202;-73
2023/06/29 09:26:19;;;;;;;6.47;4.88;;;;;;;45.32;16.20;95146.63;5142211;27;20196;-73
2023/06/29 09:28:46;;;;;;;3.50;3.13;;;;;;;44.54;16.29;95137.00;5146409;27;20203;-70
2023/06/29 09:31:13;;;;;;;3.22;2.90;;;;;;;42.84;17.58;95129.69;5144842;27;20215;-71
2023/06/29 09:33:40;;;;;;;3.30;3.00;;;;;;;42.46;18.65;95127.09;5146954;27;20689;-71
2023/06/29 09:36:08;;;;;;;2.92;2.60;;;;;;;42.07;18.11;95129.78;5142614;27;20204;-71
2023/06/29 09:38:36;;;;;;;5.00;2.50;;;;;;;41.49;19.31;95133.63;5147797;27;20195;-70
2023/06/29 09:41:06;;;;;;;3.25;2.95;;;;;;;40.69;19.19;95125.72;5142858;27;20203;-69
2023/06/29 09:43:34;;;;;;;2.60;2.50;;;;;;;39.20;20.79;95125.25;5144154;27;20203;-70
2023/06/29 09:46:06;;;;;;;4.00;3.33;;;;;;;38.04;21.93;95130.72;5143464;27;20557;-72
2023/06/29 09:48:33;;;;;;;4.53;3.88;;;;;;;35.71;25.12;95139.97;5140625;27;20699;-72
2023/06/29 09:50:59;;;;;;;5.07;3.40;;;;;;;34.21;27.55;95131.41;5145453;27;20526;-70
2023/06/29 09:53:31;;;;;;;2.50;2.40;;;;;;;33.11;28.35;95131.97;5144032;27;21241;-69
2023/06/29 09:55:59;;;;;;;2.97;2.75;;;;;;;32.18;29.55;95131.03;5139697;27;20307;-70
2023/06/29 09:58:27;;;;;;;1.85;1.75;;;;;;;31.33;31.11;95139.25;5146114;27;20214;-73
2023/06/29 10:00:58;;;;;;;2.92;2.70;;;;;;;30.74;32.30;95131.91;5146674;27;20227;-70
2023/06/29 10:03:25;;;;;;;2.88;2.47;;;;;;;30.42;33.51;95132.91;5141341;27;20572;-72
2023/06/29 10:05:54;;;;;;;6.78;4.82;;;;;;;29.97;34.38;95132.69;5142850;27;20256;-69
2023/06/29 10:08:22;;;;;;;3.65;2.55;;;;;;;29.73;33.87;95126.53;5144847;27;20798;-71
2023/06/29 10:10:54;;;;;;;3.58;3.28;;;;;;;29.65;34.48;95123.13;5142318;27;20200;-71
2023/06/29 10:13:21;;;;;;;4.35;3.95;;;;;;;29.35;35.06;95128.03;5143152;27;20662;-71
2023/06/29 10:15:51;;;;;;;7.38;4.15;;;;;;;28.85;35.86;95130.78;5144219;27;20276;-71
2023/06/29 10:18:25;;;;;;;3.53;3.13;;;;;;;28.22;36.83;95131.22;5137692;27;20597;-72
2023/06/29 10:20:52;;;;;;;3.17;2.83;;;;;;;27.57;37.90;95128.22;5145296;27;20195;-69
2023/06/29 10:23:21;;;;;;;2.78;2.55;;;;;;;27.15;39.49;95127.25;5143599;27;20203;-71
2023/06/29 10:25:50;;;;;;;3.42;2.67;;;;;;;27.05;39.52;95117.72;5144264;27;20188;-70
2023/06/29 10:28:19;;;;;;;2.30;2.20;;;;;;;26.93;39.64;95113.69;5145201;27;20196;-69
2023/06/29 10:30:46;;;;;;;2.58;2.30;;;;;;;26.97;39.65;95107.22;5142663;27;20203;-70
2023/06/29 10:33:14;;;;;;;2.83;2.63;;;;;;;27.10;39.99;95117.25;5145960;27;20208;-70
2023/06/29 10:35:51;;;;;;;3.38;2.17;;;;;;;26.86;39.70;95112.63;5143329;27;20700;-69
2023/06/29 10:38:18;;;;;;;2.50;2.33;;;;;;;26.38;41.24;95110.34;5147214;27;20224;-71
2023/06/29 10:40:49;;;;;;;3.05;2.75;;;;;;;25.93;42.94;95110.28;5142537;27;20681;-70
2023/06/29 10:43:17;;;;;;;2.80;2.60;;;;;;;25.60;42.12;95112.41;5143627;27;20778;-72
2023/06/29 10:45:44;;;;;;;2.47;2.28;;;;;;;25.48;42.77;95100.53;5140396;27;20203;-70
2023/06/29 10:48:13;;;;;;;3.33;3.08;;;;;;;25.40;42.17;95101.25;5141845;27;20196;-71
2023/06/29 10:50:43;;;;;;;2.30;2.10;;;;;;;25.23;42.70;95096.75;5140562;27;20223;-70
2023/06/29 10:53:13;;;;;;;2.83;2.63;;;;;;;25.17;44.19;95102.50;5142131;27;20324;-70
2023/06/29 10:55:45;;;;;;;2.70;2.50;;;;;;;25.11;45.12;95102.25;5144173;27;20247;-70
2023/06/29 10:58:19;;;;;;;2.85;2.67;;;;;;;25.03;44.51;95095.94;5145872;27;20623;-70
2023/06/29 11:00:46;;;;;;;3.03;2.83;;;;;;;24.97;42.73;95095.69;5144680;27;20264;-72
2023/06/29 11:03:14;;;;;;;2.90;2.70;;;;;;;24.96;42.96;95101.84;5142201;27;20686;-70
2023/06/29 11:05:43;;;;;;;2.40;2.30;;;;;;;24.90;42.68;95092.78;5140669;27;20728;-68
2023/06/29 11:08:10;;;;;;;2.63;2.50;;;;;;;24.89;42.80;95093.75;5142954;27;20201;-70
2023/06/29 11:10:37;;;;;;;2.10;1.90;;;;;;;24.60;40.94;95093.72;5144838;27;20200;-69
2023/06/29 11:13:09;;;;;;;2.55;2.38;;;;;;;24.48;42.73;95101.81;5146068;27;20199;-69
2023/06/29 11:15:35;;;;;;;3.15;2.40;;;;;;;24.41;43.89;95097.13;5148648;27;20887;-69
2023/06/29 11:18:05;;;;;;;5.53;2.80;;;;;;;24.50;44.16;95099.91;5144119;27;20200;-70
2023/06/29 11:20:33;;;;;;;3.72;2.28;;;;;;;24.31;44.59;95095.47;5146050;27;20587;-70
2023/06/29 11:23:02;;;;;;;3.53;3.30;;;;;;;24.19;45.00;95097.34;5143016;27;20235;-70
2023/06/29 11:25:29;;;;;;;3.05;2.95;;;;;;;24.14;46.01;95096.91;5147208;27;20187;-68
2023/06/29 11:27:57;;;;;;;2.90;2.70;;;;;;;24.18;44.88;95100.88;5145985;27;20648;-69
2023/06/29 11:30:24;;;;;;;3.50;3.20;;;;;;;24.32;45.14;95087.53;5150843;27;20747;-69
2023/06/29 11:32:53;;;;;;;2.85;2.75;;;;;;;24.42;44.03;95093.59;5150570;27;20206;-70